sensor_id;sensor_type;location;lat;lon;timestamp;temperature;humidity
8856;DHT22;4464;50.882;4.730;2023-02-21T00:01:53;7.50;99.90
8856;DHT22;4464;50.882;4.730;2023-02-21T00:04:39;7.50;99.90
8856;DHT22;4464;50.882;4.730;2023-02-21T00:07:23;7.60;99.90
8856;DHT22;4464;50.882;4.730;2023-02-21T00:10:10;7.60;99.90
8856;DHT22;4464;50.882;4.730;2023-02-21T00:12:57;7.70;99.90
8856;DHT22;4464;50.882;4.730;2023-02-21T00:15:41;7.60;99.90
8856;DHT22;4464;50.882;4.730;2023-02-21T00:18:25;7.60;99.90
8856;DHT22;4464;50.882;4.730;2023-02-21T00:21:09;7.60;99.90
8856;DHT22;4464;50.882;4.730;2023-02-21T00:23:53;7.60;99.90
8856;DHT22;4464;50.882;4.730;2023-02-21T00:26:37;7.50;99.90
8856;DHT22;4464;50.882;4.730;2023-02-21T00:29:21;7.50;99.90
8856;DHT22;4464;50.882;4.730;2023-02-21T00:32:06;7.50;99.90
8856;DHT22;4464;50.882;4.730;2023-02-21T00:34:52;7.50;99.90
8856;DHT22;4464;50.882;4.730;2023-02-21T00:37:36;7.40;99.90
8856;DHT22;4464;50.882;4.730;2023-02-21T00:40:24;7.40;99.90
8856;DHT22;4464;50.882;4.730;2023-02-21T00:43:08;7.30;99.90
8856;DHT22;4464;50.882;4.730;2023-02-21T00:45:53;7.40;99.90
8856;DHT22;4464;50.882;4.730;2023-02-21T00:48:37;7.40;99.90
8856;DHT22;4464;50.882;4.730;2023-02-21T00:51:21;7.30;99.90
8856;DHT22;4464;50.882;4.730;2023-02-21T00:54:05;7.40;99.90
8856;DHT22;4464;50.882;4.730;2023-02-21T00:56:52;7.40;99.90
8856;DHT22;4464;50.882;4.730;2023-02-21T00:59:36;7.40;99.90
8856;DHT22;4464;50.882;4.730;2023-02-21T01:02:20;7.40;99.90
8856;DHT22;4464;50.882;4.730;2023-02-21T01:05:05;7.40;99.90
8856;DHT22;4464;50.882;4.730;2023-02-21T01:07:49;7.30;99.90
8856;DHT22;4464;50.882;4.730;2023-02-21T01:10:36;7.30;99.90
8856;DHT22;4464;50.882;4.730;2023-02-21T01:13:20;7.30;99.90
8856;DHT22;4464;50.882;4.730;2023-02-21T01:16:10;7.30;99.90
8856;DHT22;4464;50.882;4.730;2023-02-21T01:18:54;7.20;99.90
8856;DHT22;4464;50.882;4.730;2023-02-21T01:21:43;7.20;99.90
8856;DHT22;4464;50.882;4.730;2023-02-21T01:24:27;7.20;99.90
8856;DHT22;4464;50.882;4.730;2023-02-21T01:27:12;7.20;99.90
8856;DHT22;4464;50.882;4.730;2023-02-21T01:29:56;7.20;99.90
8856;DHT22;4464;50.882;4.730;2023-02-21T01:32:40;7.20;99.90
8856;DHT22;4464;50.882;4.730;2023-02-21T01:35:24;7.20;99.90
8856;DHT22;4464;50.882;4.730;2023-02-21T01:38:08;7.30;99.90
8856;DHT22;4464;50.882;4.730;2023-02-21T01:40:53;7.20;99.90
8856;DHT22;4464;50.882;4.730;2023-02-21T01:43:37;7.20;99.90
8856;DHT22;4464;50.882;4.730;2023-02-21T01:46:21;7.30;99.90
8856;DHT22;4464;50.882;4.730;2023-02-21T01:49:13;7.30;99.90
8856;DHT22;4464;50.882;4.730;2023-02-21T01:52:02;7.20;99.90
8856;DHT22;4464;50.882;4.730;2023-02-21T01:54:52;7.30;99.90
8856;DHT22;4464;50.882;4.730;2023-02-21T01:57:38;7.30;99.90
8856;DHT22;4464;50.882;4.730;2023-02-21T02:00:23;7.30;99.90
8856;DHT22;4464;50.882;4.730;2023-02-21T02:03:10;7.20;99.90
8856;DHT22;4464;50.882;4.730;2023-02-21T02:06:01;7.20;99.90
8856;DHT22;4464;50.882;4.730;2023-02-21T02:08:46;7.10;99.90
8856;DHT22;4464;50.882;4.730;2023-02-21T02:11:59;7.10;99.90
8856;DHT22;4464;50.882;4.730;2023-02-21T02:20:53;7.00;99.90
8856;DHT22;4464;50.882;4.730;2023-02-21T02:23:38;7.10;99.90
8856;DHT22;4464;50.882;4.730;2023-02-21T02:34:49;7.10;99.90
8856;DHT22;4464;50.882;4.730;2023-02-21T02:43:04;7.10;99.90
8856;DHT22;4464;50.882;4.730;2023-02-21T02:45:48;7.20;99.90
8856;DHT22;4464;50.882;4.730;2023-02-21T02:51:02;7.20;99.90
8856;DHT22;4464;50.882;4.730;2023-02-21T02:53:30;7.10;99.90
8856;DHT22;4464;50.882;4.730;2023-02-21T02:56:01;7.10;99.90
8856;DHT22;4464;50.882;4.730;2023-02-21T02:58:33;7.10;99.90
8856;DHT22;4464;50.882;4.730;2023-02-21T03:10:01;7.00;99.90
8856;DHT22;4464;50.882;4.730;2023-02-21T03:17:41;6.90;99.90
8856;DHT22;4464;50.882;4.730;2023-02-21T03:20:14;6.90;99.90
8856;DHT22;4464;50.882;4.730;2023-02-21T03:22:44;6.90;99.90
8856;DHT22;4464;50.882;4.730;2023-02-21T03:25:12;6.90;99.90
8856;DHT22;4464;50.882;4.730;2023-02-21T03:27:41;6.90;99.90
8856;DHT22;4464;50.882;4.730;2023-02-21T03:30:13;7.00;99.90
8856;DHT22;4464;50.882;4.730;2023-02-21T03:32:43;6.90;99.90
8856;DHT22;4464;50.882;4.730;2023-02-21T03:35:11;7.00;99.90
8856;DHT22;4464;50.882;4.730;2023-02-21T03:37:47;7.00;99.90
8856;DHT22;4464;50.882;4.730;2023-02-21T03:40:21;7.00;99.90
8856;DHT22;4464;50.882;4.730;2023-02-21T03:42:51;6.90;99.90
8856;DHT22;4464;50.882;4.730;2023-02-21T03:45:17;6.90;99.90
8856;DHT22;4464;50.882;4.730;2023-02-21T03:47:43;6.90;99.90
8856;DHT22;4464;50.882;4.730;2023-02-21T03:50:14;6.90;99.90
8856;DHT22;4464;50.882;4.730;2023-02-21T03:52:40;6.90;99.90
8856;DHT22;4464;50.882;4.730;2023-02-21T03:55:07;6.80;99.90
8856;DHT22;4464;50.882;4.730;2023-02-21T03:57:33;6.80;99.90
8856;DHT22;4464;50.882;4.730;2023-02-21T03:59:59;6.90;99.90
8856;DHT22;4464;50.882;4.730;2023-02-21T04:02:25;6.80;99.90
8856;DHT22;4464;50.882;4.730;2023-02-21T04:04:53;6.90;99.90
8856;DHT22;4464;50.882;4.730;2023-02-21T04:07:22;6.90;99.90
8856;DHT22;4464;50.882;4.730;2023-02-21T04:09:48;6.80;99.90
8856;DHT22;4464;50.882;4.730;2023-02-21T04:12:16;6.80;99.90
8856;DHT22;4464;50.882;4.730;2023-02-21T04:14:45;6.80;99.90
8856;DHT22;4464;50.882;4.730;2023-02-21T04:17:10;6.90;99.90
8856;DHT22;4464;50.882;4.730;2023-02-21T04:19:36;6.80;99.90
8856;DHT22;4464;50.882;4.730;2023-02-21T04:22:04;6.80;99.90
8856;DHT22;4464;50.882;4.730;2023-02-21T04:24:30;6.80;99.90
8856;DHT22;4464;50.882;4.730;2023-02-21T04:26:56;6.80;99.90
8856;DHT22;4464;50.882;4.730;2023-02-21T04:29:22;6.70;99.90
8856;DHT22;4464;50.882;4.730;2023-02-21T04:31:51;6.80;99.90
8856;DHT22;4464;50.882;4.730;2023-02-21T04:34:20;6.80;99.90
8856;DHT22;4464;50.882;4.730;2023-02-21T04:36:50;6.80;99.90
8856;DHT22;4464;50.882;4.730;2023-02-21T04:39:18;6.70;99.90
8856;DHT22;4464;50.882;4.730;2023-02-21T04:41:44;6.70;99.90
8856;DHT22;4464;50.882;4.730;2023-02-21T04:44:11;6.60;99.90
8856;DHT22;4464;50.882;4.730;2023-02-21T04:46:37;6.70;99.90
8856;DHT22;4464;50.882;4.730;2023-02-21T04:49:03;6.70;99.90
8856;DHT22;4464;50.882;4.730;2023-02-21T04:51:29;6.70;99.90
8856;DHT22;4464;50.882;4.730;2023-02-21T04:53:58;6.70;99.90
8856;DHT22;4464;50.882;4.730;2023-02-21T04:56:24;6.60;99.90
8856;DHT22;4464;50.882;4.730;2023-02-21T04:58:52;6.60;99.90
8856;DHT22;4464;50.882;4.730;2023-02-21T05:01:21;6.70;99.90
8856;DHT22;4464;50.882;4.730;2023-02-21T05:03:47;6.70;99.90
8856;DHT22;4464;50.882;4.730;2023-02-21T05:06:21;6.70;99.90
8856;DHT22;4464;50.882;4.730;2023-02-21T05:08:47;6.70;99.90
8856;DHT22;4464;50.882;4.730;2023-02-21T05:11:14;6.70;99.90
8856;DHT22;4464;50.882;4.730;2023-02-21T05:13:40;6.70;99.90
8856;DHT22;4464;50.882;4.730;2023-02-21T05:16:07;6.70;99.90
8856;DHT22;4464;50.882;4.730;2023-02-21T05:18:33;6.70;99.90
8856;DHT22;4464;50.882;4.730;2023-02-21T05:21:02;6.60;99.90
8856;DHT22;4464;50.882;4.730;2023-02-21T05:23:27;6.70;99.90
8856;DHT22;4464;50.882;4.730;2023-02-21T05:26:00;6.60;99.90
8856;DHT22;4464;50.882;4.730;2023-02-21T05:28:26;6.50;99.90
8856;DHT22;4464;50.882;4.730;2023-02-21T05:30:53;6.60;99.90
8856;DHT22;4464;50.882;4.730;2023-02-21T05:33:19;6.60;99.90
8856;DHT22;4464;50.882;4.730;2023-02-21T05:35:45;6.60;99.90
8856;DHT22;4464;50.882;4.730;2023-02-21T05:38:16;6.60;99.90
8856;DHT22;4464;50.882;4.730;2023-02-21T05:40:44;6.60;99.90
8856;DHT22;4464;50.882;4.730;2023-02-21T05:43:11;6.70;99.90
8856;DHT22;4464;50.882;4.730;2023-02-21T05:45:36;6.70;99.90
8856;DHT22;4464;50.882;4.730;2023-02-21T05:48:02;6.60;99.90
8856;DHT22;4464;50.882;4.730;2023-02-21T05:50:29;6.50;99.90
8856;DHT22;4464;50.882;4.730;2023-02-21T05:52:56;6.60;99.90
8856;DHT22;4464;50.882;4.730;2023-02-21T05:55:22;6.60;99.90
8856;DHT22;4464;50.882;4.730;2023-02-21T05:57:48;6.60;99.90
8856;DHT22;4464;50.882;4.730;2023-02-21T06:00:25;6.60;99.90
8856;DHT22;4464;50.882;4.730;2023-02-21T06:02:57;6.50;99.90
8856;DHT22;4464;50.882;4.730;2023-02-21T06:05:27;6.50;99.90
8856;DHT22;4464;50.882;4.730;2023-02-21T06:07:56;6.50;99.90
8856;DHT22;4464;50.882;4.730;2023-02-21T06:10:21;6.60;99.90
8856;DHT22;4464;50.882;4.730;2023-02-21T06:12:47;6.50;99.90
8856;DHT22;4464;50.882;4.730;2023-02-21T06:15:13;6.60;99.90
8856;DHT22;4464;50.882;4.730;2023-02-21T06:17:40;6.60;99.90
8856;DHT22;4464;50.882;4.730;2023-02-21T06:20:09;6.60;99.90
8856;DHT22;4464;50.882;4.730;2023-02-21T06:22:39;6.60;99.90
8856;DHT22;4464;50.882;4.730;2023-02-21T06:25:10;6.60;99.90
8856;DHT22;4464;50.882;4.730;2023-02-21T06:27:36;6.60;99.90
8856;DHT22;4464;50.882;4.730;2023-02-21T06:30:03;6.80;99.90
8856;DHT22;4464;50.882;4.730;2023-02-21T06:32:29;6.90;99.90
8856;DHT22;4464;50.882;4.730;2023-02-21T06:34:55;6.80;99.90
8856;DHT22;4464;50.882;4.730;2023-02-21T06:37:24;6.80;99.90
8856;DHT22;4464;50.882;4.730;2023-02-21T06:39:49;6.80;99.90
8856;DHT22;4464;50.882;4.730;2023-02-21T06:42:18;6.90;99.90
8856;DHT22;4464;50.882;4.730;2023-02-21T06:44:48;6.90;99.90
8856;DHT22;4464;50.882;4.730;2023-02-21T06:47:16;6.90;99.90
8856;DHT22;4464;50.882;4.730;2023-02-21T06:49:44;7.00;99.90
8856;DHT22;4464;50.882;4.730;2023-02-21T06:52:10;6.90;99.90
8856;DHT22;4464;50.882;4.730;2023-02-21T06:54:37;7.00;99.90
8856;DHT22;4464;50.882;4.730;2023-02-21T06:57:02;6.90;99.90
8856;DHT22;4464;50.882;4.730;2023-02-21T06:59:30;6.80;99.90
8856;DHT22;4464;50.882;4.730;2023-02-21T07:01:56;6.70;99.90
8856;DHT22;4464;50.882;4.730;2023-02-21T07:04:23;6.60;99.90
8856;DHT22;4464;50.882;4.730;2023-02-21T07:06:49;6.60;99.90
8856;DHT22;4464;50.882;4.730;2023-02-21T07:09:17;6.60;99.90
8856;DHT22;4464;50.882;4.730;2023-02-21T07:11:43;6.60;99.90
8856;DHT22;4464;50.882;4.730;2023-02-21T07:14:11;6.70;99.90
8856;DHT22;4464;50.882;4.730;2023-02-21T07:16:37;6.60;99.90
8856;DHT22;4464;50.882;4.730;2023-02-21T07:19:03;6.70;99.90
8856;DHT22;4464;50.882;4.730;2023-02-21T07:21:30;6.70;99.90
8856;DHT22;4464;50.882;4.730;2023-02-21T07:23:58;6.70;99.90
8856;DHT22;4464;50.882;4.730;2023-02-21T07:26:24;6.70;99.90
8856;DHT22;4464;50.882;4.730;2023-02-21T07:28:52;6.80;99.90
8856;DHT22;4464;50.882;4.730;2023-02-21T07:31:18;6.70;99.90
8856;DHT22;4464;50.882;4.730;2023-02-21T07:33:47;6.70;99.90
8856;DHT22;4464;50.882;4.730;2023-02-21T07:36:15;6.80;99.90
8856;DHT22;4464;50.882;4.730;2023-02-21T07:38:41;6.80;99.90
8856;DHT22;4464;50.882;4.730;2023-02-21T07:41:07;6.90;99.90
8856;DHT22;4464;50.882;4.730;2023-02-21T07:43:33;6.80;99.90
8856;DHT22;4464;50.882;4.730;2023-02-21T07:45:59;6.80;99.90
8856;DHT22;4464;50.882;4.730;2023-02-21T07:48:25;6.80;99.90
8856;DHT22;4464;50.882;4.730;2023-02-21T07:50:53;6.80;99.90
8856;DHT22;4464;50.882;4.730;2023-02-21T07:53:18;6.70;99.90
8856;DHT22;4464;50.882;4.730;2023-02-21T07:55:44;6.80;99.90
8856;DHT22;4464;50.882;4.730;2023-02-21T07:58:12;6.70;99.90
8856;DHT22;4464;50.882;4.730;2023-02-21T08:00:43;6.80;99.90
8856;DHT22;4464;50.882;4.730;2023-02-21T08:03:13;6.80;99.90
8856;DHT22;4464;50.882;4.730;2023-02-21T08:05:41;6.90;99.90
8856;DHT22;4464;50.882;4.730;2023-02-21T08:08:08;7.00;99.90
8856;DHT22;4464;50.882;4.730;2023-02-21T08:10:36;6.90;99.90
8856;DHT22;4464;50.882;4.730;2023-02-21T08:13:02;7.00;99.90
8856;DHT22;4464;50.882;4.730;2023-02-21T08:15:28;7.00;99.90
8856;DHT22;4464;50.882;4.730;2023-02-21T08:17:54;7.00;99.90
8856;DHT22;4464;50.882;4.730;2023-02-21T08:20:20;6.90;99.90
8856;DHT22;4464;50.882;4.730;2023-02-21T08:22:46;7.00;99.90
8856;DHT22;4464;50.882;4.730;2023-02-21T08:25:13;7.20;99.90
8856;DHT22;4464;50.882;4.730;2023-02-21T08:27:40;7.30;99.90
8856;DHT22;4464;50.882;4.730;2023-02-21T08:30:12;7.30;99.90
8856;DHT22;4464;50.882;4.730;2023-02-21T08:32:39;7.40;99.90
8856;DHT22;4464;50.882;4.730;2023-02-21T08:35:05;7.40;99.90
8856;DHT22;4464;50.882;4.730;2023-02-21T08:37:34;7.30;99.90
8856;DHT22;4464;50.882;4.730;2023-02-21T08:40:05;7.30;99.90
8856;DHT22;4464;50.882;4.730;2023-02-21T08:42:30;7.30;99.90
8856;DHT22;4464;50.882;4.730;2023-02-21T08:44:58;7.50;99.90
8856;DHT22;4464;50.882;4.730;2023-02-21T08:47:24;7.30;99.90
8856;DHT22;4464;50.882;4.730;2023-02-21T08:49:50;7.20;99.90
8856;DHT22;4464;50.882;4.730;2023-02-21T08:52:17;7.10;99.90
8856;DHT22;4464;50.882;4.730;2023-02-21T08:54:46;7.20;99.90
8856;DHT22;4464;50.882;4.730;2023-02-21T08:57:12;7.30;99.90
8856;DHT22;4464;50.882;4.730;2023-02-21T08:59:42;7.50;99.90
8856;DHT22;4464;50.882;4.730;2023-02-21T09:02:21;7.50;99.90
8856;DHT22;4464;50.882;4.730;2023-02-21T09:04:47;7.40;99.90
8856;DHT22;4464;50.882;4.730;2023-02-21T09:07:18;7.30;99.90
8856;DHT22;4464;50.882;4.730;2023-02-21T09:09:46;7.20;99.90
8856;DHT22;4464;50.882;4.730;2023-02-21T09:12:15;7.20;99.90
8856;DHT22;4464;50.882;4.730;2023-02-21T09:14:42;7.30;99.90
8856;DHT22;4464;50.882;4.730;2023-02-21T09:17:12;7.20;99.90
8856;DHT22;4464;50.882;4.730;2023-02-21T09:19:38;7.30;99.90
8856;DHT22;4464;50.882;4.730;2023-02-21T09:22:09;7.20;99.90
8856;DHT22;4464;50.882;4.730;2023-02-21T09:24:36;7.20;99.90
8856;DHT22;4464;50.882;4.730;2023-02-21T09:27:02;7.30;99.90
8856;DHT22;4464;50.882;4.730;2023-02-21T09:29:30;7.40;99.90
8856;DHT22;4464;50.882;4.730;2023-02-21T09:31:57;7.50;99.90
8856;DHT22;4464;50.882;4.730;2023-02-21T09:34:25;7.60;99.90
8856;DHT22;4464;50.882;4.730;2023-02-21T09:36:51;7.60;99.90
8856;DHT22;4464;50.882;4.730;2023-02-21T09:39:22;7.50;99.90
8856;DHT22;4464;50.882;4.730;2023-02-21T09:41:50;7.60;99.90
8856;DHT22;4464;50.882;4.730;2023-02-21T09:44:25;7.70;99.90
8856;DHT22;4464;50.882;4.730;2023-02-21T09:47:02;7.70;99.90
8856;DHT22;4464;50.882;4.730;2023-02-21T09:49:36;7.70;99.90
8856;DHT22;4464;50.882;4.730;2023-02-21T09:52:33;7.80;99.90
8856;DHT22;4464;50.882;4.730;2023-02-21T09:57:34;7.70;99.90
8856;DHT22;4464;50.882;4.730;2023-02-21T10:00:01;7.70;99.90
8856;DHT22;4464;50.882;4.730;2023-02-21T10:05:46;7.70;99.90
8856;DHT22;4464;50.882;4.730;2023-02-21T10:08:29;7.70;99.90
8856;DHT22;4464;50.882;4.730;2023-02-21T10:12:09;7.90;99.90
8856;DHT22;4464;50.882;4.730;2023-02-21T10:14:29;7.80;99.90
8856;DHT22;4464;50.882;4.730;2023-02-21T10:17:16;8.00;99.90
8856;DHT22;4464;50.882;4.730;2023-02-21T10:19:45;8.00;99.90
8856;DHT22;4464;50.882;4.730;2023-02-21T10:22:27;7.70;99.90
8856;DHT22;4464;50.882;4.730;2023-02-21T10:24:56;7.80;99.90
8856;DHT22;4464;50.882;4.730;2023-02-21T10:27:26;7.80;99.90
8856;DHT22;4464;50.882;4.730;2023-02-21T10:30:06;7.80;99.90
8856;DHT22;4464;50.882;4.730;2023-02-21T10:32:36;7.80;99.90
8856;DHT22;4464;50.882;4.730;2023-02-21T10:35:02;7.60;99.90
8856;DHT22;4464;50.882;4.730;2023-02-21T10:37:42;7.60;99.90
8856;DHT22;4464;50.882;4.730;2023-02-21T10:43:12;7.60;99.90
8856;DHT22;4464;50.882;4.730;2023-02-21T10:48:42;7.70;99.90
8856;DHT22;4464;50.882;4.730;2023-02-21T10:51:13;7.70;99.90
8856;DHT22;4464;50.882;4.730;2023-02-21T10:53:44;7.70;99.90
8856;DHT22;4464;50.882;4.730;2023-02-21T11:04:04;7.60;99.90
8856;DHT22;4464;50.882;4.730;2023-02-21T11:06:39;7.70;99.90
8856;DHT22;4464;50.882;4.730;2023-02-21T11:12:17;7.40;99.90
8856;DHT22;4464;50.882;4.730;2023-02-21T11:15:03;7.50;99.90
8856;DHT22;4464;50.882;4.730;2023-02-21T11:17:30;7.30;99.90
8856;DHT22;4464;50.882;4.730;2023-02-21T11:20:19;7.30;99.90
8856;DHT22;4464;50.882;4.730;2023-02-21T11:22:49;7.40;99.90
8856;DHT22;4464;50.882;4.730;2023-02-21T11:25:27;7.50;99.90
8856;DHT22;4464;50.882;4.730;2023-02-21T11:33:10;7.60;99.90
8856;DHT22;4464;50.882;4.730;2023-02-21T11:35:51;7.60;99.90
8856;DHT22;4464;50.882;4.730;2023-02-21T11:38:40;7.60;99.90
8856;DHT22;4464;50.882;4.730;2023-02-21T11:41:36;7.80;99.90
8856;DHT22;4464;50.882;4.730;2023-02-21T11:46:53;7.80;99.90
8856;DHT22;4464;50.882;4.730;2023-02-21T11:52:22;8.20;99.90
8856;DHT22;4464;50.882;4.730;2023-02-21T11:54:50;8.30;99.90
8856;DHT22;4464;50.882;4.730;2023-02-21T12:11:18;8.80;99.90
8856;DHT22;4464;50.882;4.730;2023-02-21T12:26:48;8.70;99.90
8856;DHT22;4464;50.882;4.730;2023-02-21T12:46:19;8.90;99.90
8856;DHT22;4464;50.882;4.730;2023-02-21T12:52:30;9.00;99.90
8856;DHT22;4464;50.882;4.730;2023-02-21T12:55:15;8.90;99.90
8856;DHT22;4464;50.882;4.730;2023-02-21T12:57:57;9.00;99.90
8856;DHT22;4464;50.882;4.730;2023-02-21T13:00:42;9.10;99.90
8856;DHT22;4464;50.882;4.730;2023-02-21T13:06:31;9.10;99.90
8856;DHT22;4464;50.882;4.730;2023-02-21T13:09:07;9.20;99.90
8856;DHT22;4464;50.882;4.730;2023-02-21T13:11:56;9.20;99.90
8856;DHT22;4464;50.882;4.730;2023-02-21T13:14:36;9.20;99.90
8856;DHT22;4464;50.882;4.730;2023-02-21T13:17:09;9.30;99.90
8856;DHT22;4464;50.882;4.730;2023-02-21T13:19:44;9.20;99.90
8856;DHT22;4464;50.882;4.730;2023-02-21T13:22:19;9.30;99.90
8856;DHT22;4464;50.882;4.730;2023-02-21T13:27:30;9.70;99.90
8856;DHT22;4464;50.882;4.730;2023-02-21T13:30:20;9.50;99.90
8856;DHT22;4464;50.882;4.730;2023-02-21T13:32:57;9.50;99.90
8856;DHT22;4464;50.882;4.730;2023-02-21T13:35:31;9.40;99.90
8856;DHT22;4464;50.882;4.730;2023-02-21T13:37:59;9.50;99.90
8856;DHT22;4464;50.882;4.730;2023-02-21T13:40:36;9.50;99.90
8856;DHT22;4464;50.882;4.730;2023-02-21T13:43:15;9.70;99.90
8856;DHT22;4464;50.882;4.730;2023-02-21T13:45:42;9.60;99.90
8856;DHT22;4464;50.882;4.730;2023-02-21T13:48:18;9.60;99.90
8856;DHT22;4464;50.882;4.730;2023-02-21T13:50:46;9.40;99.90
8856;DHT22;4464;50.882;4.730;2023-02-21T13:58:36;9.60;99.90
8856;DHT22;4464;50.882;4.730;2023-02-21T14:03:50;9.40;99.90
8856;DHT22;4464;50.882;4.730;2023-02-21T14:08:52;9.60;99.90
8856;DHT22;4464;50.882;4.730;2023-02-21T14:11:26;9.70;99.90
8856;DHT22;4464;50.882;4.730;2023-02-21T14:13:54;9.90;99.90
8856;DHT22;4464;50.882;4.730;2023-02-21T14:16:36;10.00;99.90
8856;DHT22;4464;50.882;4.730;2023-02-21T14:19:25;10.20;99.90
8856;DHT22;4464;50.882;4.730;2023-02-21T14:22:08;10.40;99.90
8856;DHT22;4464;50.882;4.730;2023-02-21T14:24:37;10.40;99.90
8856;DHT22;4464;50.882;4.730;2023-02-21T14:32:36;10.50;99.90
8856;DHT22;4464;50.882;4.730;2023-02-21T14:38:02;10.40;99.90
8856;DHT22;4464;50.882;4.730;2023-02-21T14:46:06;10.30;99.90
8856;DHT22;4464;50.882;4.730;2023-02-21T14:49:27;10.30;99.90
8856;DHT22;4464;50.882;4.730;2023-02-21T14:59:48;10.10;99.90
8856;DHT22;4464;50.882;4.730;2023-02-21T15:02:40;10.10;99.90
8856;DHT22;4464;50.882;4.730;2023-02-21T15:10:23;9.50;99.90
8856;DHT22;4464;50.882;4.730;2023-02-21T15:12:57;9.60;99.90
8856;DHT22;4464;50.882;4.730;2023-02-21T15:15:29;9.80;99.90
8856;DHT22;4464;50.882;4.730;2023-02-21T15:20:32;10.00;99.90
8856;DHT22;4464;50.882;4.730;2023-02-21T15:23:14;10.00;99.90
8856;DHT22;4464;50.882;4.730;2023-02-21T15:25:41;10.10;99.90
8856;DHT22;4464;50.882;4.730;2023-02-21T15:33:28;10.10;99.90
8856;DHT22;4464;50.882;4.730;2023-02-21T15:36:06;10.00;99.90
8856;DHT22;4464;50.882;4.730;2023-02-21T15:38:55;10.00;99.90
8856;DHT22;4464;50.882;4.730;2023-02-21T15:44:17;10.00;99.90
8856;DHT22;4464;50.882;4.730;2023-02-21T15:46:48;10.00;99.90
8856;DHT22;4464;50.882;4.730;2023-02-21T15:49:24;9.80;99.90
8856;DHT22;4464;50.882;4.730;2023-02-21T15:51:50;9.80;99.90
8856;DHT22;4464;50.882;4.730;2023-02-21T15:56:43;10.00;99.90
8856;DHT22;4464;50.882;4.730;2023-02-21T15:59:16;10.20;99.90
8856;DHT22;4464;50.882;4.730;2023-02-21T16:01:42;10.30;99.90
8856;DHT22;4464;50.882;4.730;2023-02-21T16:06:53;10.30;99.90
8856;DHT22;4464;50.882;4.730;2023-02-21T16:14:58;10.20;99.90
8856;DHT22;4464;50.882;4.730;2023-02-21T16:17:36;10.20;99.90
8856;DHT22;4464;50.882;4.730;2023-02-21T16:20:26;9.80;99.90
8856;DHT22;4464;50.882;4.730;2023-02-21T16:28:32;9.40;99.90
8856;DHT22;4464;50.882;4.730;2023-02-21T16:31:00;9.30;99.90
8856;DHT22;4464;50.882;4.730;2023-02-21T16:33:27;9.20;99.90
8856;DHT22;4464;50.882;4.730;2023-02-21T16:35:54;9.10;99.90
8856;DHT22;4464;50.882;4.730;2023-02-21T16:38:21;9.00;99.90
8856;DHT22;4464;50.882;4.730;2023-02-21T16:40:48;8.90;99.90
8856;DHT22;4464;50.882;4.730;2023-02-21T16:43:17;8.90;99.90
8856;DHT22;4464;50.882;4.730;2023-02-21T16:45:45;8.90;99.90
8856;DHT22;4464;50.882;4.730;2023-02-21T16:48:24;9.00;99.90
8856;DHT22;4464;50.882;4.730;2023-02-21T16:50:55;9.00;99.90
8856;DHT22;4464;50.882;4.730;2023-02-21T16:53:21;8.90;99.90
8856;DHT22;4464;50.882;4.730;2023-02-21T16:55:48;8.80;99.90
8856;DHT22;4464;50.882;4.730;2023-02-21T16:58:25;8.70;99.90
8856;DHT22;4464;50.882;4.730;2023-02-21T17:00:56;8.70;99.90
8856;DHT22;4464;50.882;4.730;2023-02-21T17:03:27;8.60;99.90
8856;DHT22;4464;50.882;4.730;2023-02-21T17:05:54;8.60;99.90
8856;DHT22;4464;50.882;4.730;2023-02-21T17:08:21;8.60;99.90
8856;DHT22;4464;50.882;4.730;2023-02-21T17:10:47;8.50;99.90
8856;DHT22;4464;50.882;4.730;2023-02-21T17:13:15;8.50;99.90
8856;DHT22;4464;50.882;4.730;2023-02-21T17:15:41;8.40;99.90
8856;DHT22;4464;50.882;4.730;2023-02-21T17:18:06;8.30;99.90
8856;DHT22;4464;50.882;4.730;2023-02-21T17:20:32;8.20;99.90
8856;DHT22;4464;50.882;4.730;2023-02-21T17:22:58;8.00;99.90
8856;DHT22;4464;50.882;4.730;2023-02-21T17:25:27;8.00;99.90
8856;DHT22;4464;50.882;4.730;2023-02-21T17:27:56;7.90;99.90
8856;DHT22;4464;50.882;4.730;2023-02-21T17:30:24;7.80;99.90
8856;DHT22;4464;50.882;4.730;2023-02-21T17:32:51;7.80;99.90
8856;DHT22;4464;50.882;4.730;2023-02-21T17:35:20;7.70;99.90
8856;DHT22;4464;50.882;4.730;2023-02-21T17:37:53;7.50;99.90
8856;DHT22;4464;50.882;4.730;2023-02-21T17:40:20;7.40;99.90
8856;DHT22;4464;50.882;4.730;2023-02-21T17:42:49;7.40;99.90
8856;DHT22;4464;50.882;4.730;2023-02-21T17:45:16;7.30;99.90
8856;DHT22;4464;50.882;4.730;2023-02-21T17:47:43;7.20;99.90
8856;DHT22;4464;50.882;4.730;2023-02-21T17:50:09;7.20;99.90
8856;DHT22;4464;50.882;4.730;2023-02-21T17:52:37;7.10;99.90
8856;DHT22;4464;50.882;4.730;2023-02-21T17:55:06;7.00;99.90
8856;DHT22;4464;50.882;4.730;2023-02-21T17:57:38;6.90;99.90
8856;DHT22;4464;50.882;4.730;2023-02-21T18:00:14;6.90;99.90
8856;DHT22;4464;50.882;4.730;2023-02-21T18:02:40;6.80;99.90
8856;DHT22;4464;50.882;4.730;2023-02-21T18:05:06;6.80;99.90
8856;DHT22;4464;50.882;4.730;2023-02-21T18:07:33;6.70;99.90
8856;DHT22;4464;50.882;4.730;2023-02-21T18:10:00;6.70;99.90
8856;DHT22;4464;50.882;4.730;2023-02-21T18:12:28;6.60;99.90
8856;DHT22;4464;50.882;4.730;2023-02-21T18:14:54;6.60;99.90
8856;DHT22;4464;50.882;4.730;2023-02-21T18:17:20;6.50;99.90
8856;DHT22;4464;50.882;4.730;2023-02-21T18:19:48;6.50;99.90
8856;DHT22;4464;50.882;4.730;2023-02-21T18:22:14;6.40;99.90
8856;DHT22;4464;50.882;4.730;2023-02-21T18:24:40;6.40;99.90
8856;DHT22;4464;50.882;4.730;2023-02-21T18:27:07;6.30;99.90
8856;DHT22;4464;50.882;4.730;2023-02-21T18:29:33;6.30;99.90
8856;DHT22;4464;50.882;4.730;2023-02-21T18:31:58;6.20;99.90
8856;DHT22;4464;50.882;4.730;2023-02-21T18:34:27;6.10;99.90
8856;DHT22;4464;50.882;4.730;2023-02-21T18:36:53;6.10;99.90
8856;DHT22;4464;50.882;4.730;2023-02-21T18:39:21;6.00;99.90
8856;DHT22;4464;50.882;4.730;2023-02-21T18:41:48;6.00;99.90
8856;DHT22;4464;50.882;4.730;2023-02-21T18:44:14;5.90;99.90
8856;DHT22;4464;50.882;4.730;2023-02-21T18:46:45;5.90;99.90
8856;DHT22;4464;50.882;4.730;2023-02-21T18:49:17;5.90;99.90
8856;DHT22;4464;50.882;4.730;2023-02-21T18:51:43;5.80;99.90
8856;DHT22;4464;50.882;4.730;2023-02-21T18:54:09;5.80;99.90
8856;DHT22;4464;50.882;4.730;2023-02-21T18:56:37;5.70;99.90
8856;DHT22;4464;50.882;4.730;2023-02-21T18:59:02;5.70;99.90
8856;DHT22;4464;50.882;4.730;2023-02-21T19:01:28;5.70;99.90
8856;DHT22;4464;50.882;4.730;2023-02-21T19:03:54;5.60;99.90
8856;DHT22;4464;50.882;4.730;2023-02-21T19:06:21;5.60;99.90
8856;DHT22;4464;50.882;4.730;2023-02-21T19:08:47;5.60;99.90
8856;DHT22;4464;50.882;4.730;2023-02-21T19:11:15;5.50;99.90
8856;DHT22;4464;50.882;4.730;2023-02-21T19:13:42;5.40;99.90
8856;DHT22;4464;50.882;4.730;2023-02-21T19:16:14;5.30;99.90
8856;DHT22;4464;50.882;4.730;2023-02-21T19:18:40;5.30;99.90
8856;DHT22;4464;50.882;4.730;2023-02-21T19:21:06;5.30;99.90
8856;DHT22;4464;50.882;4.730;2023-02-21T19:23:37;5.20;99.90
8856;DHT22;4464;50.882;4.730;2023-02-21T19:26:04;5.20;99.90
8856;DHT22;4464;50.882;4.730;2023-02-21T19:28:33;5.10;99.90
8856;DHT22;4464;50.882;4.730;2023-02-21T19:30:58;5.10;99.90
8856;DHT22;4464;50.882;4.730;2023-02-21T19:33:24;5.10;99.90
8856;DHT22;4464;50.882;4.730;2023-02-21T19:35:53;5.00;99.90
8856;DHT22;4464;50.882;4.730;2023-02-21T19:38:19;5.00;99.90
8856;DHT22;4464;50.882;4.730;2023-02-21T19:40:44;5.00;99.90
8856;DHT22;4464;50.882;4.730;2023-02-21T19:43:14;4.80;99.90
8856;DHT22;4464;50.882;4.730;2023-02-21T19:45:43;4.80;99.90
8856;DHT22;4464;50.882;4.730;2023-02-21T19:48:09;4.80;99.90
8856;DHT22;4464;50.882;4.730;2023-02-21T19:50:35;4.80;99.90
8856;DHT22;4464;50.882;4.730;2023-02-21T19:53:01;4.70;99.90
8856;DHT22;4464;50.882;4.730;2023-02-21T19:55:30;4.70;99.90
8856;DHT22;4464;50.882;4.730;2023-02-21T19:57:56;4.70;99.90